Time;durP1;ratioP1;P1;durP2;ratioP2;P2;SDS_P1;SDS_P2;PMS_P1;PMS_P2;Temp;Humidity;BMP_temperature;BMP_pressure;BME280_temperature;BME280_humidity;BME280_pressure;Samples;Min_cycle;Max_cycle;Signal;HPM_P1;HPM_P2
2023/08/31 00:00:30;;;;;;;5.82;2.10;;;10.70;99.90;;;;;;5054233;28;20101;-90
2023/08/31 00:02:55;;;;;;;4.97;1.70;;;10.60;99.90;;;;;;5054880;28;20029;-89
2023/08/31 00:05:22;;;;;;;7.35;2.00;;;10.50;99.90;;;;;;5051780;28;20033;-90
2023/08/31 00:07:47;;;;;;;4.65;2.40;;;10.50;99.90;;;;;;5051669;28;20021;-90
2023/08/31 00:10:13;;;;;;;9.60;2.08;;;10.40;99.90;;;;;;5051888;28;20099;-90
2023/08/31 00:12:39;;;;;;;3.25;1.50;;;10.40;99.90;;;;;;5051607;28;20029;-90
2023/08/31 00:15:05;;;;;;;3.72;1.70;;;10.40;99.90;;;;;;5051496;28;20044;-89
2023/08/31 00:17:31;;;;;;;3.15;1.50;;;10.40;99.90;;;;;;5051306;28;20021;-89
2023/08/31 00:19:56;;;;;;;4.82;1.48;;;10.40;99.90;;;;;;5051667;28;20069;-90
2023/08/31 00:22:22;;;;;;;3.78;1.85;;;10.40;99.90;;;;;;5052558;28;20061;-89
2023/08/31 00:24:48;;;;;;;3.40;1.40;;;10.40;99.90;;;;;;5051446;28;20032;-90
2023/08/31 00:27:15;;;;;;;6.18;1.98;;;10.40;99.90;;;;;;5055137;28;20026;-89
2023/08/31 00:29:40;;;;;;;4.82;1.70;;;10.40;99.90;;;;;;5058201;28;20033;-89
2023/08/31 00:32:06;;;;;;;7.15;1.60;;;10.40;99.90;;;;;;5051390;28;20021;-89
2023/08/31 00:34:32;;;;;;;5.13;1.58;;;10.50;99.90;;;;;;5052374;28;20025;-90
2023/08/31 00:36:57;;;;;;;8.48;1.60;;;10.50;99.90;;;;;;5051599;28;20025;-90
2023/08/31 00:39:23;;;;;;;5.28;1.52;;;10.50;99.90;;;;;;5051288;28;20032;-89
2023/08/31 00:41:50;;;;;;;4.03;1.70;;;10.50;99.90;;;;;;5051496;28;20518;-89
2023/08/31 00:44:15;;;;;;;7.63;2.17;;;10.50;99.90;;;;;;5052057;28;20021;-89
2023/08/31 00:46:42;;;;;;;4.10;2.03;;;10.50;99.90;;;;;;5051433;28;20041;-89
2023/08/31 00:49:08;;;;;;;4.00;1.92;;;10.40;99.90;;;;;;5050983;28;20477;-90
2023/08/31 00:51:35;;;;;;;4.63;1.80;;;10.30;99.90;;;;;;5051220;28;20391;-89
2023/08/31 00:54:00;;;;;;;3.42;1.65;;;10.20;99.90;;;;;;5051300;28;20017;-89
2023/08/31 00:56:26;;;;;;;5.53;1.88;;;10.20;99.90;;;;;;5050786;28;20036;-90
2023/08/31 00:58:54;;;;;;;3.85;1.88;;;10.10;99.90;;;;;;5050863;28;20028;-89
2023/08/31 01:01:20;;;;;;;10.88;1.80;;;10.10;99.90;;;;;;5051749;28;20037;-91
2023/08/31 01:03:48;;;;;;;4.28;1.67;;;10.10;99.90;;;;;;5051542;28;20077;-89
2023/08/31 01:06:47;;;;;;;3.13;1.33;;;10.10;99.90;;;;;;5054499;28;20035;-89
2023/08/31 01:09:45;;;;;;;4.07;1.70;;;10.10;99.90;;;;;;5060299;28;20035;-88
2023/08/31 01:12:16;;;;;;;4.00;2.00;;;10.00;99.90;;;;;;5057858;28;20025;-89
2023/08/31 01:14:59;;;;;;;3.75;1.63;;;10.00;99.90;;;;;;5055919;28;20116;-90
2023/08/31 01:17:28;;;;;;;6.55;1.63;;;10.00;99.90;;;;;;5053235;28;20064;-89
2023/08/31 01:19:55;;;;;;;5.63;1.70;;;10.00;99.90;;;;;;5053242;28;20050;-90
2023/08/31 01:22:36;;;;;;;7.22;2.15;;;10.00;99.90;;;;;;5053043;28;20436;-90
2023/08/31 01:25:04;;;;;;;5.32;2.00;;;9.90;99.90;;;;;;5052167;28;20037;-89
2023/08/31 01:27:31;;;;;;;5.85;1.80;;;9.90;99.90;;;;;;5051326;28;20051;-89
2023/08/31 01:29:57;;;;;;;3.08;1.52;;;9.90;99.90;;;;;;5051895;28;20109;-89
2023/08/31 01:32:23;;;;;;;2.97;1.58;;;9.90;99.90;;;;;;5050578;28;20502;-90
2023/08/31 01:34:51;;;;;;;5.07;2.00;;;9.90;99.90;;;;;;5052099;28;20029;-89
2023/08/31 01:37:38;;;;;;;3.97;2.50;;;9.90;99.90;;;;;;5051842;28;20531;-90
2023/08/31 01:40:17;;;;;;;7.03;2.03;;;9.80;99.90;;;;;;5051699;28;20017;-90
2023/08/31 01:42:43;;;;;;;12.50;3.40;;;9.70;99.90;;;;;;5051940;28;20127;-90
2023/08/31 01:45:14;;;;;;;4.00;1.90;;;9.70;99.90;;;;;;5051857;28;20191;-90
2023/08/31 01:47:40;;;;;;;6.65;2.20;;;9.70;99.90;;;;;;5050297;28;20025;-89
2023/08/31 01:50:06;;;;;;;3.75;1.70;;;9.70;99.90;;;;;;5050573;28;20430;-90
2023/08/31 01:52:31;;;;;;;4.10;1.75;;;9.60;99.90;;;;;;5050247;28;20407;-89
2023/08/31 01:54:57;;;;;;;4.60;1.95;;;9.70;99.90;;;;;;5050200;28;20047;-89
2023/08/31 01:57:23;;;;;;;4.00;1.48;;;9.70;99.90;;;;;;5050308;28;20025;-90
2023/08/31 01:59:48;;;;;;;3.97;1.63;;;9.70;99.90;;;;;;5051355;28;20116;-90
2023/08/31 02:02:14;;;;;;;5.60;1.88;;;9.70;99.90;;;;;;5050262;28;20510;-89
2023/08/31 02:04:40;;;;;;;6.25;1.80;;;9.70;99.90;;;;;;5050758;28;20025;-89
2023/08/31 02:07:05;;;;;;;2.85;1.90;;;9.70;99.90;;;;;;5055615;28;20041;-89
2023/08/31 02:09:31;;;;;;;3.90;1.88;;;9.60;99.90;;;;;;5053345;28;20048;-90
2023/08/31 02:11:56;;;;;;;6.10;2.15;;;9.60;99.90;;;;;;5050067;28;20057;-89
2023/08/31 02:14:23;;;;;;;6.25;1.85;;;9.50;99.90;;;;;;5049907;28;20456;-90
2023/08/31 02:16:48;;;;;;;6.85;2.25;;;9.50;99.90;;;;;;5049854;28;20066;-90
2023/08/31 02:19:14;;;;;;;10.68;1.90;;;9.50;99.90;;;;;;5050696;28;20052;-89
2023/08/31 02:21:40;;;;;;;6.15;2.67;;;9.50;99.90;;;;;;5049700;28;20391;-89
2023/08/31 02:24:06;;;;;;;4.75;1.92;;;9.50;99.90;;;;;;5050691;28;20021;-91
2023/08/31 02:26:32;;;;;;;4.07;2.13;;;9.50;99.90;;;;;;5049956;28;20142;-90
2023/08/31 02:28:57;;;;;;;6.03;2.40;;;9.50;99.90;;;;;;5049744;28;20061;-90
2023/08/31 02:31:23;;;;;;;5.57;1.90;;;9.40;99.90;;;;;;5049547;28;20028;-90
2023/08/31 02:33:49;;;;;;;3.10;1.60;;;9.40;99.90;;;;;;5049905;28;20054;-91
2023/08/31 02:36:15;;;;;;;12.73;1.85;;;9.30;99.90;;;;;;5049445;28;20037;-90
2023/08/31 02:38:40;;;;;;;4.38;2.55;;;9.30;99.90;;;;;;5050472;28;20100;-91
2023/08/31 02:41:06;;;;;;;3.55;1.92;;;9.20;99.90;;;;;;5050612;28;20092;-90
2023/08/31 02:43:32;;;;;;;3.00;1.55;;;9.20;99.90;;;;;;5048832;28;20017;-90
2023/08/31 02:46:02;;;;;;;12.73;2.17;;;9.20;99.90;;;;;;5050050;28;20113;-90
2023/08/31 02:48:28;;;;;;;6.97;1.67;;;9.10;99.90;;;;;;5050435;28;20092;-89
2023/08/31 02:50:54;;;;;;;5.78;1.88;;;9.10;99.90;;;;;;5049389;28;20067;-89
2023/08/31 02:53:19;;;;;;;6.07;2.05;;;9.10;99.90;;;;;;5049075;28;20056;-90
2023/08/31 02:55:45;;;;;;;4.00;1.80;;;9.10;99.90;;;;;;5050500;28;20515;-90
2023/08/31 02:58:11;;;;;;;7.13;2.08;;;9.20;99.90;;;;;;5049219;28;20056;-90
2023/08/31 03:00:39;;;;;;;6.90;1.73;;;9.20;99.90;;;;;;5049365;28;20021;-91
2023/08/31 03:03:05;;;;;;;4.15;1.70;;;9.20;99.90;;;;;;5049272;28;20074;-90
2023/08/31 03:05:30;;;;;;;3.53;1.95;;;9.10;99.90;;;;;;5049212;28;20025;-90
2023/08/31 03:07:57;;;;;;;3.97;2.38;;;9.10;99.90;;;;;;5048901;28;20036;-92
2023/08/31 03:10:22;;;;;;;7.35;1.98;;;9.10;99.90;;;;;;5049147;28;20029;-89
2023/08/31 03:12:48;;;;;;;5.25;1.83;;;9.10;99.90;;;;;;5049132;28;20025;-89
2023/08/31 03:15:13;;;;;;;4.38;1.92;;;9.10;99.90;;;;;;5049489;28;20041;-89
2023/08/31 03:17:39;;;;;;;3.30;1.90;;;9.00;99.90;;;;;;5049693;28;20025;-90
2023/08/31 03:20:06;;;;;;;5.63;2.00;;;9.00;99.90;;;;;;5049188;28;20033;-90
2023/08/31 03:22:32;;;;;;;7.03;2.30;;;8.90;99.90;;;;;;5049031;28;20025;-90
2023/08/31 03:24:57;;;;;;;4.72;2.28;;;8.80;99.90;;;;;;5052632;28;20093;-89
2023/08/31 03:27:23;;;;;;;7.97;1.80;;;8.80;99.90;;;;;;5050013;28;20480;-90
2023/08/31 03:29:48;;;;;;;3.88;1.95;;;8.70;99.90;;;;;;5049833;28;20032;-91
2023/08/31 03:32:14;;;;;;;9.43;2.10;;;8.60;99.90;;;;;;5049974;28;20069;-90
2023/08/31 03:34:40;;;;;;;5.55;2.10;;;8.60;99.90;;;;;;5048495;28;20357;-90
2023/08/31 03:37:05;;;;;;;2.58;1.80;;;8.50;99.90;;;;;;5048220;28;20054;-90
2023/08/31 03:39:31;;;;;;;3.33;1.80;;;8.40;99.90;;;;;;5048409;28;20021;-90
2023/08/31 03:41:57;;;;;;;5.40;1.83;;;8.40;99.90;;;;;;5048896;28;20029;-89
2023/08/31 03:44:23;;;;;;;5.18;2.38;;;8.40;99.90;;;;;;5048573;28;20041;-90
2023/08/31 03:46:49;;;;;;;4.45;1.88;;;8.30;99.90;;;;;;5049715;28;20548;-90
2023/08/31 03:49:14;;;;;;;5.45;2.47;;;8.30;99.90;;;;;;5048605;28;20063;-89
2023/08/31 03:51:40;;;;;;;6.63;2.00;;;8.30;99.90;;;;;;5048254;28;20066;-90
2023/08/31 03:54:06;;;;;;;5.75;2.00;;;8.20;99.90;;;;;;5050111;28;20024;-90
2023/08/31 03:56:31;;;;;;;3.80;1.67;;;8.20;99.90;;;;;;5052872;28;20033;-90
2023/08/31 03:58:57;;;;;;;3.70;2.10;;;8.20;99.90;;;;;;5053168;28;20017;-90
2023/08/31 04:01:23;;;;;;;9.82;1.95;;;8.20;99.90;;;;;;5053078;28;20078;-90
2023/08/31 04:03:49;;;;;;;6.18;1.92;;;8.20;99.90;;;;;;5052835;28;20018;-90
2023/08/31 04:06:14;;;;;;;4.35;2.45;;;8.20;99.90;;;;;;5053867;28;20046;-89
2023/08/31 04:08:40;;;;;;;7.65;2.55;;;8.10;99.90;;;;;;5054784;28;20027;-89
2023/08/31 04:11:06;;;;;;;5.57;2.00;;;8.10;99.90;;;;;;5052204;28;20536;-89
2023/08/31 04:13:31;;;;;;;5.78;2.60;;;8.10;99.90;;;;;;5056784;28;20040;-90
2023/08/31 04:15:57;;;;;;;9.55;2.40;;;8.10;99.90;;;;;;5056833;28;20432;-89
2023/08/31 04:18:23;;;;;;;6.40;2.50;;;8.20;99.90;;;;;;5052265;28;20471;-90
2023/08/31 04:20:53;;;;;;;7.55;2.50;;;8.20;99.90;;;;;;5059353;28;20029;-90
2023/08/31 04:23:19;;;;;;;4.38;2.03;;;8.20;99.90;;;;;;5058454;28;20104;-90
2023/08/31 04:25:47;;;;;;;3.63;2.10;;;8.20;99.90;;;;;;5059791;28;20029;-90
2023/08/31 04:28:13;;;;;;;4.50;2.10;;;8.20;99.90;;;;;;5056858;28;20025;-90
2023/08/31 04:30:40;;;;;;;8.52;2.30;;;8.20;99.90;;;;;;5052381;28;20060;-89
2023/08/31 04:33:07;;;;;;;4.57;1.88;;;8.20;99.90;;;;;;5052153;28;20025;-89
2023/08/31 04:35:33;;;;;;;7.95;2.20;;;8.20;99.90;;;;;;5051888;28;20124;-90
2023/08/31 04:37:59;;;;;;;5.18;2.88;;;8.10;99.90;;;;;;5052962;28;20025;-89
2023/08/31 04:40:27;;;;;;;6.10;2.33;;;8.10;99.90;;;;;;5051448;28;20044;-90
2023/08/31 04:42:52;;;;;;;5.85;2.67;;;8.10;99.90;;;;;;5052697;28;20098;-90
2023/08/31 04:45:18;;;;;;;4.05;2.40;;;8.10;99.90;;;;;;5052368;28;20045;-89
2023/08/31 04:47:44;;;;;;;6.53;2.42;;;8.10;99.90;;;;;;5051060;28;20056;-89
2023/08/31 04:50:09;;;;;;;5.10;2.63;;;8.10;99.90;;;;;;5051012;28;20025;-90
2023/08/31 04:52:35;;;;;;;6.03;2.20;;;8.10;99.90;;;;;;5050877;28;20197;-90
2023/08/31 04:55:03;;;;;;;11.27;3.28;;;8.10;99.90;;;;;;5050771;28;20029;-90
2023/08/31 04:57:29;;;;;;;10.45;3.38;;;8.10;99.90;;;;;;5051052;28;20510;-90
2023/08/31 04:59:54;;;;;;;7.60;3.20;;;8.10;99.90;;;;;;5051189;28;20021;-90
2023/08/31 05:02:20;;;;;;;18.52;3.50;;;8.10;99.90;;;;;;5051084;28;20025;-90
2023/08/31 05:04:46;;;;;;;10.93;3.10;;;8.10;99.90;;;;;;5050585;28;20487;-89
2023/08/31 05:07:11;;;;;;;7.70;3.58;;;8.20;99.90;;;;;;5051989;28;20025;-89
2023/08/31 05:09:37;;;;;;;8.07;3.63;;;8.20;99.90;;;;;;5052391;28;20032;-89
2023/08/31 05:12:03;;;;;;;10.73;4.43;;;8.20;99.90;;;;;;5050884;28;20104;-90
2023/08/31 05:14:29;;;;;;;12.00;4.22;;;8.20;99.90;;;;;;5051742;28;20528;-89
2023/08/31 05:16:55;;;;;;;12.18;4.15;;;8.10;99.90;;;;;;5050397;28;20033;-90
2023/08/31 05:19:21;;;;;;;12.60;4.70;;;8.20;99.90;;;;;;5050675;28;20033;-89
2023/08/31 05:21:47;;;;;;;11.48;4.35;;;8.10;99.90;;;;;;5051221;28;20025;-90
2023/08/31 05:24:12;;;;;;;13.25;5.00;;;8.20;99.90;;;;;;5050910;28;20025;-90
2023/08/31 05:26:39;;;;;;;13.23;4.72;;;8.10;99.90;;;;;;5050712;28;20025;-89
2023/08/31 05:29:05;;;;;;;13.25;4.55;;;8.10;99.90;;;;;;5050468;28;20040;-89
2023/08/31 05:31:31;;;;;;;13.45;4.80;;;8.00;99.90;;;;;;5050100;28;20025;-89
2023/08/31 05:33:57;;;;;;;19.15;5.07;;;8.00;99.90;;;;;;5051326;28;20032;-89
2023/08/31 05:36:22;;;;;;;12.55;4.03;;;8.00;99.90;;;;;;5050239;28;20048;-89
2023/08/31 05:38:48;;;;;;;14.15;4.13;;;8.00;99.90;;;;;;5050315;28;20063;-89
2023/08/31 05:41:14;;;;;;;18.75;4.43;;;8.00;99.90;;;;;;5050302;28;20089;-90
2023/08/31 05:43:42;;;;;;;11.02;3.92;;;8.00;99.90;;;;;;5050206;28;20061;-89
2023/08/31 05:46:08;;;;;;;9.73;3.90;;;8.00;99.90;;;;;;5050054;28;20127;-89
2023/08/31 05:48:38;;;;;;;8.10;3.97;;;8.10;99.90;;;;;;5050189;28;20211;-90
2023/08/31 05:51:04;;;;;;;18.13;6.05;;;8.10;99.90;;;;;;5049934;28;20729;-89
2023/08/31 05:53:33;;;;;;;16.45;5.00;;;8.10;99.90;;;;;;5050116;28;20021;-90
2023/08/31 05:56:08;;;;;;;12.07;3.70;;;8.10;99.90;;;;;;5051176;28;20037;-90
2023/08/31 05:58:35;;;;;;;11.13;4.20;;;8.20;99.90;;;;;;5051040;28;20025;-91
2023/08/31 06:01:02;;;;;;;12.50;4.13;;;8.30;99.90;;;;;;5050841;28;20025;-89
2023/08/31 06:03:29;;;;;;;11.43;4.05;;;8.30;99.90;;;;;;5050125;28;20395;-90
2023/08/31 06:05:55;;;;;;;9.98;4.43;;;8.30;99.90;;;;;;5049696;28;20033;-90
2023/08/31 06:08:21;;;;;;;13.10;4.60;;;8.30;99.90;;;;;;5049876;28;20025;-89
2023/08/31 06:10:47;;;;;;;10.88;5.22;;;8.30;99.90;;;;;;5050285;28;20078;-89
2023/08/31 06:13:12;;;;;;;18.02;5.28;;;8.30;99.90;;;;;;5049643;28;20029;-89
2023/08/31 06:15:38;;;;;;;26.67;5.05;;;8.30;99.90;;;;;;5050782;28;20080;-89
2023/08/31 06:18:04;;;;;;;27.48;5.28;;;8.30;99.90;;;;;;5049989;28;20029;-89
2023/08/31 06:20:30;;;;;;;22.60;4.75;;;8.30;99.90;;;;;;5051403;28;20029;-89
2023/08/31 06:22:56;;;;;;;16.20;5.18;;;8.30;99.90;;;;;;5057449;28;20391;-89
2023/08/31 06:25:22;;;;;;;18.50;4.82;;;8.30;99.90;;;;;;5050574;28;20032;-89
2023/08/31 06:27:48;;;;;;;17.52;5.22;;;8.30;99.90;;;;;;5050189;28;20487;-90
2023/08/31 06:30:16;;;;;;;33.90;6.70;;;8.40;99.90;;;;;;5049312;28;20056;-89
2023/08/31 06:32:46;;;;;;;23.15;5.47;;;8.40;99.90;;;;;;5050641;28;20017;-90
2023/08/31 06:35:13;;;;;;;20.92;5.55;;;8.40;99.90;;;;;;5047755;28;20029;-89
2023/08/31 06:37:39;;;;;;;14.70;5.30;;;8.50;99.90;;;;;;5050603;28;20028;-90
2023/08/31 06:40:09;;;;;;;10.13;4.57;;;8.60;99.90;;;;;;5049437;28;20029;-90
2023/08/31 06:42:36;;;;;;;8.18;4.70;;;8.70;99.90;;;;;;5049360;28;20040;-89
2023/08/31 06:45:05;;;;;;;9.13;4.68;;;8.80;99.90;;;;;;5050388;28;20056;-90
2023/08/31 06:47:33;;;;;;;11.57;5.03;;;8.90;99.90;;;;;;5050517;28;20113;-89
2023/08/31 06:49:59;;;;;;;17.48;5.53;;;9.10;99.90;;;;;;5049203;28;20274;-90
2023/08/31 06:52:26;;;;;;;15.68;5.50;;;9.20;99.90;;;;;;5049128;28;20391;-90
2023/08/31 06:54:55;;;;;;;26.77;5.15;;;9.20;99.90;;;;;;5050382;28;20018;-90
2023/08/31 06:57:21;;;;;;;11.48;5.10;;;9.30;99.90;;;;;;5052569;28;20498;-90
2023/08/31 06:59:47;;;;;;;21.38;5.63;;;9.40;99.90;;;;;;5048742;28;20108;-90
2023/08/31 07:02:13;;;;;;;12.88;4.38;;;9.50;99.90;;;;;;5049149;28;20177;-89
2023/08/31 07:04:39;;;;;;;11.35;4.13;;;9.60;99.90;;;;;;5049577;28;20048;-89
2023/08/31 07:07:05;;;;;;;16.75;4.35;;;9.60;99.90;;;;;;5050562;28;20029;-89
2023/08/31 07:09:31;;;;;;;15.77;4.95;;;9.70;99.90;;;;;;5050814;28;20036;-90
2023/08/31 07:11:58;;;;;;;11.93;4.95;;;9.80;99.90;;;;;;5049998;28;20029;-90
2023/08/31 07:14:24;;;;;;;12.88;4.85;;;9.90;99.90;;;;;;5048710;28;20520;-89
2023/08/31 07:16:50;;;;;;;14.07;5.32;;;9.90;99.90;;;;;;5048979;28;20043;-90
2023/08/31 07:19:16;;;;;;;8.98;5.28;;;10.00;99.90;;;;;;5048996;28;20045;-90
2023/08/31 07:21:41;;;;;;;9.98;5.93;;;10.10;99.90;;;;;;5049986;28;20052;-90
2023/08/31 07:24:07;;;;;;;11.15;4.68;;;10.10;99.90;;;;;;5048680;28;20025;-89
2023/08/31 07:26:34;;;;;;;11.88;4.68;;;10.20;99.90;;;;;;5049021;28;20518;-90
2023/08/31 07:29:01;;;;;;;10.27;5.10;;;10.30;99.90;;;;;;5050647;28;20116;-87
2023/08/31 07:31:27;;;;;;;7.00;4.10;;;10.40;99.90;;;;;;5052384;28;20026;-90
2023/08/31 07:33:52;;;;;;;5.70;3.97;;;10.50;99.90;;;;;;5052846;28;20028;-89
2023/08/31 07:36:18;;;;;;;8.13;4.72;;;10.60;99.90;;;;;;5054090;28;20037;-90
2023/08/31 07:38:44;;;;;;;6.05;4.15;;;10.70;99.90;;;;;;5055933;28;20029;-90
2023/08/31 07:41:09;;;;;;;10.52;4.60;;;10.80;99.90;;;;;;5055496;28;20073;-90
2023/08/31 07:43:35;;;;;;;9.32;3.67;;;10.90;99.90;;;;;;5055111;28;20056;-89
2023/08/31 07:46:00;;;;;;;7.53;4.15;;;10.90;99.90;;;;;;5052207;28;20123;-90
2023/08/31 07:48:26;;;;;;;7.38;4.40;;;11.00;99.90;;;;;;5052457;28;20491;-90
2023/08/31 07:50:52;;;;;;;6.95;4.40;;;11.00;99.90;;;;;;5052273;28;20035;-90
2023/08/31 07:53:17;;;;;;;12.10;4.35;;;11.00;99.90;;;;;;5052359;28;20045;-90
2023/08/31 07:55:54;;;;;;;18.67;5.00;;;11.10;99.90;;;;;;5052304;28;20105;-90
2023/08/31 07:58:21;;;;;;;9.63;4.70;;;11.10;99.90;;;;;;5052092;28;20025;-92
2023/08/31 08:00:46;;;;;;;7.75;4.70;;;11.10;99.90;;;;;;5051874;28;20027;-89
2023/08/31 08:03:12;;;;;;;7.20;4.35;;;11.20;99.90;;;;;;5052677;28;20462;-90
2023/08/31 08:05:39;;;;;;;9.32;5.88;;;11.20;99.90;;;;;;5051737;28;20025;-90
2023/08/31 08:08:05;;;;;;;9.27;5.00;;;11.20;99.90;;;;;;5052115;28;20051;-90
2023/08/31 08:10:30;;;;;;;10.00;5.43;;;11.30;99.90;;;;;;5054924;28;20100;-89
2023/08/31 08:12:56;;;;;;;9.85;5.35;;;11.40;99.90;;;;;;5052020;28;20044;-90
2023/08/31 08:15:22;;;;;;;11.30;5.00;;;11.50;99.90;;;;;;5052979;28;20434;-89
2023/08/31 08:17:48;;;;;;;10.70;5.85;;;11.60;99.90;;;;;;5052846;28;20025;-89
2023/08/31 08:20:14;;;;;;;8.80;5.10;;;11.80;99.90;;;;;;5054193;28;20073;-90
2023/08/31 08:22:40;;;;;;;9.25;4.93;;;11.90;99.90;;;;;;5054711;28;20081;-89
2023/08/31 08:25:06;;;;;;;6.47;4.03;;;12.10;99.90;;;;;;5054995;28;20021;-89
2023/08/31 08:27:32;;;;;;;8.15;4.75;;;12.20;99.90;;;;;;5060001;28;20037;-90
2023/08/31 08:29:59;;;;;;;9.45;4.80;;;12.40;99.90;;;;;;5056544;28;20115;-90
2023/08/31 08:32:24;;;;;;;9.23;4.90;;;12.50;99.90;;;;;;5055389;28;20057;-90
2023/08/31 08:34:51;;;;;;;8.05;4.57;;;12.60;99.90;;;;;;5052553;28;20021;-90
2023/08/31 08:37:17;;;;;;;7.90;4.90;;;12.80;99.90;;;;;;5051591;28;20037;-90
2023/08/31 08:39:43;;;;;;;10.57;5.05;;;12.90;99.90;;;;;;5050517;28;20032;-90
2023/08/31 08:42:11;;;;;;;10.88;4.70;;;13.00;99.90;;;;;;5052119;28;20029;-90
2023/08/31 08:44:37;;;;;;;9.07;5.03;;;13.20;99.90;;;;;;5051268;28;20052;-90
2023/08/31 08:47:03;;;;;;;10.40;5.10;;;13.20;99.90;;;;;;5051154;28;20048;-90
2023/08/31 08:49:31;;;;;;;8.98;4.80;;;13.30;99.90;;;;;;5052117;28;20035;-90
2023/08/31 08:51:58;;;;;;;11.55;5.35;;;13.40;99.90;;;;;;5051872;28;20484;-90
2023/08/31 08:54:24;;;;;;;8.35;4.50;;;13.60;99.90;;;;;;5050887;28;20395;-91
2023/08/31 08:56:50;;;;;;;10.00;4.60;;;13.70;99.90;;;;;;5050810;28;20044;-91
2023/08/31 08:59:16;;;;;;;10.48;5.45;;;13.80;99.90;;;;;;5051001;28;20029;-91
2023/08/31 09:01:42;;;;;;;10.82;4.68;;;14.00;99.90;;;;;;5050912;28;20033;-90
2023/08/31 09:04:10;;;;;;;9.40;4.53;;;14.20;99.90;;;;;;5050690;28;20077;-89
2023/08/31 09:06:35;;;;;;;12.80;5.57;;;14.30;99.90;;;;;;5050706;28;20044;-90
2023/08/31 09:09:01;;;;;;;10.48;5.45;;;14.50;99.90;;;;;;5050595;28;20028;-90
2023/08/31 09:11:27;;;;;;;15.25;4.22;;;14.60;99.90;;;;;;5050643;28;20060;-90
2023/08/31 09:13:53;;;;;;;11.98;3.78;;;14.70;99.90;;;;;;5050546;28;20021;-91
2023/08/31 09:16:31;;;;;;;8.63;3.85;;;14.90;99.90;;;;;;5050532;28;20554;-89
2023/08/31 09:18:58;;;;;;;7.40;4.25;;;14.90;99.90;;;;;;5050219;28;20538;-90
2023/08/31 09:21:37;;;;;;;10.90;4.28;;;15.10;99.90;;;;;;5050613;28;20665;-89
2023/08/31 09:24:07;;;;;;;8.93;3.40;;;15.20;99.90;;;;;;5050274;28;20191;-90
2023/08/31 09:26:37;;;;;;;8.32;3.38;;;15.40;99.90;;;;;;5050359;28;20076;-89
2023/08/31 09:29:08;;;;;;;7.88;3.13;;;15.70;99.90;;;;;;5050240;28;20120;-89
2023/08/31 09:31:34;;;;;;;6.10;2.65;;;15.80;99.90;;;;;;5050173;28;20029;-89
2023/08/31 09:33:59;;;;;;;6.55;2.60;;;16.10;99.90;;;;;;5049950;28;20111;-89
2023/08/31 09:36:28;;;;;;;10.02;2.63;;;16.30;99.90;;;;;;5051820;28;20123;-89
2023/08/31 09:38:58;;;;;;;9.80;2.40;;;16.50;99.90;;;;;;5050117;28;20049;-89
2023/08/31 09:41:23;;;;;;;6.67;1.73;;;16.50;99.90;;;;;;5050098;28;20041;-89
2023/08/31 09:43:49;;;;;;;3.58;1.70;;;16.60;99.90;;;;;;5050143;28;20081;-91
2023/08/31 09:46:15;;;;;;;3.33;1.60;;;16.70;99.90;;;;;;5049854;28;20057;-90
2023/08/31 09:48:43;;;;;;;4.05;1.40;;;16.80;99.90;;;;;;5050595;28;20050;-88
2023/08/31 09:51:10;;;;;;;5.40;1.45;;;17.00;99.90;;;;;;5049590;28;20036;-90
2023/08/31 09:53:37;;;;;;;4.88;1.60;;;17.20;99.90;;;;;;5050294;28;20080;-88
2023/08/31 09:56:07;;;;;;;4.65;1.45;;;17.30;99.90;;;;;;5050019;28;20057;-91
2023/08/31 09:58:33;;;;;;;5.63;1.67;;;17.40;99.90;;;;;;5049904;28;20025;-89
2023/08/31 10:00:59;;;;;;;7.18;1.83;;;17.50;99.90;;;;;;5049724;28;20029;-88
2023/08/31 10:03:26;;;;;;;7.97;1.70;;;17.50;99.90;;;;;;5050223;28;20120;-88
2023/08/31 10:05:51;;;;;;;9.52;1.55;;;17.50;99.90;;;;;;5050049;28;20025;-88
2023/08/31 10:08:18;;;;;;;7.10;1.60;;;17.60;99.90;;;;;;5050440;28;20031;-88
2023/08/31 10:10:45;;;;;;;6.53;1.73;;;17.80;99.90;;;;;;5050992;28;20021;-89
2023/08/31 10:13:11;;;;;;;7.53;2.20;;;18.00;99.90;;;;;;5049600;28;20033;-91
2023/08/31 10:15:37;;;;;;;5.65;1.38;;;18.30;99.90;;;;;;5049488;28;20093;-89
2023/08/31 10:18:05;;;;;;;5.72;1.67;;;18.50;99.90;;;;;;5049676;28;20025;-90
2023/08/31 10:20:33;;;;;;;9.55;1.83;;;18.80;99.90;;;;;;5049412;28;20067;-90
2023/08/31 10:22:59;;;;;;;6.10;1.50;;;19.00;99.90;;;;;;5049469;28;20073;-89
2023/08/31 10:25:26;;;;;;;3.22;1.38;;;19.00;99.90;;;;;;5049467;28;20115;-89
2023/08/31 10:27:52;;;;;;;3.97;1.20;;;18.90;98.70;;;;;;5049430;28;20484;-88
2023/08/31 10:30:21;;;;;;;3.65;0.75;;;18.90;97.80;;;;;;5049981;28;20492;-89
2023/08/31 10:33:19;;;;;;;1.95;0.80;;;18.80;96.90;;;;;;5049705;28;20029;-89
2023/08/31 10:35:49;;;;;;;2.15;0.95;;;18.90;95.40;;;;;;5053857;28;20033;-90
2023/08/31 10:38:16;;;;;;;4.55;1.48;;;19.00;94.60;;;;;;5051755;28;20029;-89
2023/08/31 10:40:42;;;;;;;3.38;1.00;;;19.20;93.70;;;;;;5050752;28;20047;-88
2023/08/31 10:43:17;;;;;;;3.67;0.90;;;19.50;92.50;;;;;;5049215;28;20033;-90
2023/08/31 10:45:46;;;;;;;4.43;1.15;;;19.60;90.50;;;;;;5048968;28;20133;-89
2023/08/31 10:48:11;;;;;;;2.70;1.33;;;19.60;89.60;;;;;;5050589;28;20029;-88
2023/08/31 10:50:47;;;;;;;3.60;1.10;;;19.60;88.50;;;;;;5050634;28;20025;-89
2023/08/31 10:53:12;;;;;;;8.63;1.65;;;19.60;88.70;;;;;;5050668;28;20025;-88
2023/08/31 10:55:53;;;;;;;3.33;0.88;;;19.60;88.60;;;;;;5050332;28;20033;-89
2023/08/31 10:58:19;;;;;;;1.83;0.93;;;19.80;87.30;;;;;;5050136;28;20047;-90
2023/08/31 11:00:56;;;;;;;3.38;1.30;;;19.90;85.60;;;;;;5049124;28;20025;-89
2023/08/31 11:03:22;;;;;;;8.50;1.75;;;20.20;85.60;;;;;;5050161;28;20491;-89
2023/08/31 11:05:52;;;;;;;5.65;1.58;;;20.20;84.70;;;;;;5052434;28;20079;-90
2023/08/31 11:08:25;;;;;;;7.13;1.55;;;20.40;84.50;;;;;;5052376;28;20440;-89
2023/08/31 11:10:51;;;;;;;9.55;1.33;;;20.60;83.90;;;;;;5052659;28;20407;-88
2023/08/31 11:13:19;;;;;;;3.95;1.35;;;20.80;83.40;;;;;;5052106;28;20085;-89
2023/08/31 11:15:46;;;;;;;3.70;1.00;;;20.70;81.50;;;;;;5053454;28;20037;-89
2023/08/31 11:18:12;;;;;;;4.57;1.23;;;20.50;81.40;;;;;;5052687;28;20108;-88
2023/08/31 11:20:38;;;;;;;3.78;1.10;;;20.40;81.00;;;;;;5053242;28;20128;-89
2023/08/31 11:23:04;;;;;;;1.27;0.98;;;20.30;80.90;;;;;;5056067;28;20056;-87
2023/08/31 11:25:33;;;;;;;2.75;0.95;;;20.40;81.20;;;;;;5061181;28;20033;-89
2023/08/31 11:28:01;;;;;;;12.27;1.48;;;20.50;80.80;;;;;;5052175;28;20391;-90
2023/08/31 11:30:31;;;;;;;4.03;1.00;;;20.60;80.60;;;;;;5052035;28;20032;-89
2023/08/31 11:32:57;;;;;;;2.08;0.98;;;20.90;80.20;;;;;;5052180;28;20153;-88
2023/08/31 11:35:24;;;;;;;3.50;1.08;;;21.10;79.40;;;;;;5051608;28;20120;-90
2023/08/31 11:37:51;;;;;;;3.60;0.80;;;21.40;78.80;;;;;;5051972;28;20032;-89
2023/08/31 11:40:17;;;;;;;3.85;0.70;;;21.40;77.00;;;;;;5051685;28;20021;-89
2023/08/31 11:42:43;;;;;;;3.30;1.30;;;21.40;76.80;;;;;;5051501;28;20037;-90
2023/08/31 11:45:11;;;;;;;3.58;1.00;;;21.40;76.00;;;;;;5051548;28;20049;-90
2023/08/31 11:47:39;;;;;;;3.97;1.05;;;21.50;76.10;;;;;;5051561;28;20062;-89
2023/08/31 11:50:08;;;;;;;2.25;0.68;;;21.40;75.70;;;;;;5051630;28;20497;-88
2023/08/31 11:52:34;;;;;;;3.92;1.30;;;21.30;75.40;;;;;;5051838;28;20025;-89
2023/08/31 11:54:59;;;;;;;2.95;0.82;;;21.30;75.40;;;;;;5051398;27;20028;-89
2023/08/31 11:57:26;;;;;;;3.83;0.95;;;21.30;75.20;;;;;;5052540;28;20483;-88
2023/08/31 11:59:52;;;;;;;3.80;0.77;;;21.10;74.70;;;;;;5052274;28;20036;-89
2023/08/31 12:02:19;;;;;;;4.30;1.17;;;21.10;75.50;;;;;;5051232;28;20029;-88
2023/08/31 12:04:45;;;;;;;5.68;0.90;;;21.20;74.90;;;;;;5050898;28;20055;-87
2023/08/31 12:07:15;;;;;;;5.25;1.00;;;21.40;74.60;;;;;;5051262;28;20029;-89
2023/08/31 12:09:44;;;;;;;3.22;0.90;;;21.60;74.00;;;;;;5052404;28;20387;-88
2023/08/31 12:12:10;;;;;;;3.22;0.80;;;21.90;73.60;;;;;;5051265;28;20032;-90
2023/08/31 12:14:39;;;;;;;4.03;1.00;;;22.10;72.30;;;;;;5051617;28;20371;-89
2023/08/31 12:17:07;;;;;;;3.40;1.25;;;22.40;71.10;;;;;;5050452;28;20131;-88
2023/08/31 12:19:35;;;;;;;2.67;0.85;;;22.60;70.10;;;;;;5050733;28;20044;-88
2023/08/31 12:22:01;;;;;;;6.53;1.17;;;22.80;69.60;;;;;;5051932;28;20116;-88
2023/08/31 12:24:27;;;;;;;4.38;1.20;;;22.90;69.00;;;;;;5051993;28;20045;-89
2023/08/31 12:26:53;;;;;;;4.00;1.00;;;23.00;68.60;;;;;;5050869;28;20494;-87
2023/08/31 12:29:19;;;;;;;5.22;1.42;;;22.90;68.10;;;;;;5050750;28;20053;-88
2023/08/31 12:31:45;;;;;;;4.88;1.15;;;22.90;68.30;;;;;;5050500;28;20126;-88
2023/08/31 12:34:11;;;;;;;2.03;1.00;;;22.80;68.40;;;;;;5050538;28;20092;-88
2023/08/31 12:36:38;;;;;;;3.47;1.38;;;22.90;68.50;;;;;;5052136;28;20040;-89
2023/08/31 12:39:06;;;;;;;3.40;0.98;;;22.90;68.00;;;;;;5051186;28;20164;-91
2023/08/31 12:41:33;;;;;;;2.13;0.80;;;22.70;66.30;;;;;;5052425;28;20495;-91
2023/08/31 12:43:59;;;;;;;3.05;1.42;;;22.60;66.40;;;;;;5054043;28;20025;-90
2023/08/31 12:46:26;;;;;;;3.65;1.08;;;22.80;66.60;;;;;;5051124;28;20049;-89